NCAR-RAP Real-Time Weather Data

Output produced by METARs form (23 February 2020  02:26 UTC)
found at http://weather.rap.ucar.edu/surface/
 
KCLT 230152Z 18004KT 10SM CLR 06/M04 A3033 RMK AO2 SLP275 T00611044
KCLT 230052Z 17004KT 10SM CLR 08/M05 A3034 RMK AO2 SLP277 T00781050
KCLT 222352Z 19005KT 10SM CLR 09/M05 A3033 RMK AO2 SLP275 T00891050 10133 20083 56006
KCLT 222252Z 20005KT 10SM CLR 11/M06 A3033 RMK AO2 SLP275 T01061056
KCLT 222152Z 21006KT 10SM CLR 12/M06 A3034 RMK AO2 SLP276 T01221061
KCLT 222052Z 22006KT 10SM FEW250 13/M07 A3035 RMK AO2 SLP281 T01281067 56022
KCLT 221952Z 22006KT 10SM FEW250 12/M07 A3036 RMK AO2 SLP284 T01171067
KCLT 221852Z 20006KT 10SM CLR 11/M06 A3039 RMK AO2 SLP296 T01111061
KCLT 221752Z VRB03KT 10SM CLR 10/M06 A3042 RMK AO2 SLP304 T01001056 10100 21044 58021
KCLT 221652Z 22003KT 10SM CLR 08/M05 A3045 RMK AO2 SLP316 T00831050
KCLT 221552Z 22006KT 10SM FEW250 07/M06 A3047 RMK AO2 SLP321 T00671061
KCLT 221452Z AUTO 31004KT 10SM CLR 05/M04 A3048 RMK AO2 SLP325 T00501039 50013
KCLT 221352Z 00000KT 10SM CLR 01/M03 A3049 RMK AO2 SLP328 T00111033
KCLT 221252Z 17003KT 10SM CLR M02/M04 A3045 RMK AO2 SLP317 T10171044
KCLT 221152Z 00000KT 10SM CLR M03/M06 A3044 RMK AO2 SLP313 T10281061 11011 21044 51009
KCLT 221052Z 00000KT 10SM CLR M04/M06 A3043 RMK AO2 SLP311 T10441061
KCLT 220952Z 00000KT 10SM CLR M02/M06 A3043 RMK AO2 SLP307 T10221056
KCLT 220852Z 00000KT 10SM CLR M03/M06 A3041 RMK AO2 SLP303 T10331061 56014
KCLT 220752Z 00000KT 10SM CLR M03/M06 A3042 RMK AO2 SLP305 T10281061
KCLT 220652Z 00000KT 10SM CLR M03/M06 A3044 RMK AO2 SLP312 T10331061
KCLT 220552Z 00000KT 10SM CLR M04/M06 A3045 RMK AO2 SLP318 T10391061 10044 21044 56011
KCLT 220452Z 30004KT 10SM CLR M02/M06 A3046 RMK AO2 SLP321 T10221056 400671022
KCLT 220352Z 00000KT 10SM CLR 01/M08 A3048 RMK AO2 SLP325 T00111078
KCLT 220252Z 00000KT 10SM CLR 02/M08 A3049 RMK AO2 SLP328 T00171078 53010
KCLT 220152Z 00000KT 10SM CLR 02/M08 A3047 RMK AO2 SLP324 T00221083
KCLT 220052Z 06005KT 10SM CLR 03/M09 A3046 RMK AO2 SLP321 T00281089
KCLT 212352Z VRB04KT 10SM CLR 04/M10 A3045 RMK AO2 SLP317 T00441100 10067 20039 55001
KCLT 212252Z 00000KT 10SM CLR 06/M11 A3045 RMK AO2 SLP315 T00561106
KCLT 212152Z 04009KT 10SM CLR 06/M09 A3045 RMK AO2 SLP314 T00611094
KCLT 212052Z VRB06KT 10SM CLR 06/M09 A3046 RMK AO2 SLP317 T00611089 56014
KCLT 211952Z 03008KT 10SM FEW055 06/M08 A3046 RMK AO2 SLP319 T00611078
KCLT 211852Z 04010G18KT 10SM FEW055 05/M08 A3048 RMK AO2 SLP324 T00501083
KCLT 211752Z 36011KT 10SM FEW050 04/M08 A3050 RMK AO2 SLP332 T00391078 10044 21006 50001
KCLT 211652Z 02009G18KT 10SM FEW050 03/M07 A3052 RMK AO2 SLP339 T00331067
KCLT 211552Z 02013G20KT 10SM FEW050 03/M07 A3052 RMK AO2 SLP339 T00281067
KCLT 211452Z 02012KT 10SM FEW050 02/M08 A3050 RMK AO2 SLP332 T00171078 51029
KCLT 211352Z 03012G19KT 10SM FEW050 01/M07 A3047 RMK AO2 SLP323 T00061067
KCLT 211252Z 02012KT 10SM FEW048 00/M07 A3044 RMK AO2 SLP313 T00001067
KCLT 211152Z 02010G16KT 10SM FEW048 M01/M06 A3041 RMK AO2 SLP302 70034 T10061056 10011 21006 53020
KCLT 211052Z 02010KT 10SM FEW045 00/M04 A3039 RMK AO2 SLP295 T00001039
KCLT 210952Z 02008KT 10SM FEW045 FEW120 00/M02 A3036 RMK AO2 SLP287 T00001022
KCLT 210852Z 02006KT 7SM FEW012 FEW110 00/M02 A3035 RMK AO2 SLP281 T00001017 51004
KCLT 210752Z 03007KT 8SM FEW007 FEW110 01/M02 A3035 RMK AO2 SLP280 T00061017
KCLT 210652Z 02006KT 10SM SCT009 BKN110 01/M01 A3034 RMK AO2 SLP277 T00111011
KCLT 210640Z 02007KT 10SM FEW009 SCT013 BKN110 01/M01 A3034 RMK AO2 T00111011
KCLT 210605Z 02008KT 10SM SCT008 BKN010 OVC110 01/M01 A3034 RMK AO2 T00111006
KCLT 210552Z 02007KT 10SM BKN008 OVC100 01/M01 A3034 RMK AO2 SLP276 60001 T00111006 10017 20011 55000
KCLT 210452Z 02007KT 10SM OVC008 01/M01 A3033 RMK AO2 SLP275 T00111006 400890011
KCLT 210352Z 03006KT 10SM BKN008 BKN080 OVC110 01/M01 A3033 RMK AO2 SLP274 T00111006
KCLT 210302Z 01007KT 10SM BKN009 OVC075 01/M01 A3034 RMK AO2 T00111006
KCLT 210252Z 01006KT 10SM SCT010 OVC075 01/M01 A3034 RMK AO2 SLP277 60001 T00111006 53010